createdAt,value
2023-01-25T00:02:26.706Z,3.78
2023-01-25T00:04:53.215Z,4.21
2023-01-25T00:07:19.712Z,4.18
2023-01-25T00:09:46.256Z,4.42
2023-01-25T00:12:12.761Z,4.47
2023-01-25T00:14:39.241Z,4.52
2023-01-25T00:17:05.753Z,4.62
2023-01-25T00:19:32.280Z,4.54
2023-01-25T00:21:58.777Z,4.73
2023-01-25T00:24:25.374Z,4.79
2023-01-25T00:26:51.904Z,4.78
2023-01-25T00:29:18.542Z,4.83
2023-01-25T00:32:01.966Z,4.78
2023-01-25T00:34:28.509Z,4.87
2023-01-25T00:37:01.442Z,4.85
2023-01-25T00:39:28.184Z,4.93
2023-01-25T00:41:55.694Z,4.87
2023-01-25T00:44:22.524Z,4.80
2023-01-25T00:46:49.376Z,4.77
2023-01-25T00:49:21.692Z,4.77
2023-01-25T00:51:48.906Z,4.71
2023-01-25T00:54:16.520Z,4.72
2023-01-25T00:56:43.250Z,4.71
2023-01-25T00:59:10.333Z,4.74
2023-01-25T01:01:37.422Z,4.67
2023-01-25T01:04:05.766Z,4.76
2023-01-25T01:06:35.985Z,4.71
2023-01-25T01:09:03.389Z,4.69
2023-01-25T01:11:29.912Z,4.70
2023-01-25T01:13:57.422Z,4.66
2023-01-25T01:16:25.174Z,4.66
2023-01-25T01:18:51.809Z,4.57
2023-01-25T01:21:19.206Z,4.55
2023-01-25T01:23:45.814Z,4.57
2023-01-25T01:26:15.090Z,4.59
2023-01-25T01:28:42.378Z,4.54
2023-01-25T01:31:17.594Z,4.59
2023-01-25T01:33:44.329Z,4.62
2023-01-25T01:36:13.927Z,4.60
2023-01-25T01:38:41.087Z,4.58
2023-01-25T01:41:09.343Z,4.60
2023-01-25T01:43:36.241Z,4.67
2023-01-25T01:46:25.223Z,4.65
2023-01-25T01:49:13.314Z,4.66
2023-01-25T01:51:48.834Z,4.63
2023-01-25T01:54:21.305Z,4.65
2023-01-25T01:56:57.841Z,4.73
2023-01-25T01:59:31.309Z,4.65
2023-01-25T02:01:57.825Z,4.86
2023-01-25T02:04:27.561Z,4.87
2023-01-25T02:07:17.286Z,4.87
2023-01-25T02:09:44.610Z,4.99
2023-01-25T02:12:13.743Z,4.89
2023-01-25T02:14:47.905Z,5.06
2023-01-25T02:17:14.884Z,5.10
2023-01-25T02:20:00.639Z,5.15
2023-01-25T02:22:53.074Z,5.13
2023-01-25T02:25:19.635Z,5.04
2023-01-25T02:27:57.857Z,5.18
2023-01-25T02:30:24.744Z,5.21
2023-01-25T02:32:51.346Z,5.18
2023-01-25T02:35:21.066Z,5.19
2023-01-25T02:37:49.135Z,5.17
2023-01-25T02:40:19.460Z,5.11
2023-01-25T02:42:46.318Z,4.99
2023-01-25T02:45:18.431Z,4.70
2023-01-25T02:47:44.922Z,4.70
2023-01-25T02:50:12.189Z,4.27
2023-01-25T02:52:39.730Z,4.39
2023-01-25T02:55:07.225Z,4.38
2023-01-25T02:57:33.870Z,4.35
2023-01-25T03:00:00.431Z,4.47
2023-01-25T03:02:26.997Z,4.31
2023-01-25T03:04:53.556Z,4.41
2023-01-25T03:07:20.045Z,4.48
2023-01-25T03:09:46.535Z,4.54
2023-01-25T03:12:13.098Z,4.55
2023-01-25T03:14:39.686Z,4.49
2023-01-25T03:17:06.372Z,4.49
2023-01-25T03:19:32.889Z,4.53
2023-01-25T03:21:59.422Z,4.55
2023-01-25T03:24:28.877Z,4.57
2023-01-25T03:26:55.466Z,4.61
2023-01-25T03:29:21.970Z,4.41
2023-01-25T03:31:48.579Z,4.57
2023-01-25T03:34:15.211Z,4.52
2023-01-25T03:36:41.750Z,4.38
2023-01-25T03:39:08.227Z,4.47
2023-01-25T03:41:34.822Z,4.50
2023-01-25T03:44:01.427Z,4.58
2023-01-25T03:46:27.945Z,4.62
2023-01-25T03:48:54.483Z,4.64
2023-01-25T03:51:20.987Z,4.61
2023-01-25T03:53:47.485Z,4.55
2023-01-25T03:56:13.976Z,4.50
2023-01-25T03:58:40.516Z,4.59
2023-01-25T04:01:08.198Z,4.61
2023-01-25T04:03:34.764Z,4.53
2023-01-25T04:06:01.682Z,4.59
2023-01-25T04:08:28.262Z,4.54
2023-01-25T04:10:57.452Z,4.26
2023-01-25T04:13:25.255Z,4.40
2023-01-25T04:15:52.382Z,4.41
2023-01-25T04:18:18.995Z,4.36
2023-01-25T04:20:46.550Z,4.26
2023-01-25T04:23:20.795Z,4.40
2023-01-25T04:26:02.652Z,4.37
2023-01-25T04:28:29.186Z,4.45
2023-01-25T04:30:56.823Z,4.39
2023-01-25T04:33:23.861Z,4.41
2023-01-25T04:35:50.837Z,4.45
2023-01-25T04:38:17.465Z,4.39
2023-01-25T04:40:44.526Z,4.37
2023-01-25T04:43:13.856Z,4.40
2023-01-25T04:45:40.651Z,4.37
2023-01-25T04:48:10.266Z,4.21
2023-01-25T04:50:41.856Z,4.35
2023-01-25T04:53:10.584Z,4.30
2023-01-25T04:55:37.276Z,4.26
2023-01-25T04:58:04.152Z,4.25
2023-01-25T05:00:32.261Z,4.32
2023-01-25T05:02:58.911Z,4.26
2023-01-25T05:05:26.120Z,4.24
2023-01-25T05:07:52.614Z,3.98
2023-01-25T05:10:19.128Z,4.00
2023-01-25T05:12:45.697Z,3.84
2023-01-25T05:15:12.538Z,3.69
2023-01-25T05:17:39.141Z,3.86
2023-01-25T05:20:05.938Z,4.00
2023-01-25T05:22:32.411Z,3.99
2023-01-25T05:24:58.881Z,4.10
2023-01-25T05:27:25.617Z,4.18
2023-01-25T05:29:52.115Z,4.20
2023-01-25T05:32:23.435Z,4.25
2023-01-25T05:34:49.993Z,4.26
2023-01-25T05:37:18.704Z,4.25
2023-01-25T05:39:45.345Z,4.29
2023-01-25T05:42:14.460Z,4.23
2023-01-25T05:44:40.952Z,4.15
2023-01-25T05:47:07.719Z,4.07
2023-01-25T05:49:34.317Z,4.00
2023-01-25T05:52:00.934Z,4.04
2023-01-25T05:54:27.603Z,3.85
2023-01-25T05:56:54.301Z,3.93
2023-01-25T05:59:20.857Z,3.95
2023-01-25T06:01:47.358Z,4.07
2023-01-25T06:04:17.366Z,4.04
2023-01-25T06:06:43.873Z,3.84
2023-01-25T06:09:13.467Z,3.99
2023-01-25T06:11:42.629Z,4.03
2023-01-25T06:14:09.108Z,3.97
2023-01-25T06:16:35.605Z,3.87
2023-01-25T06:19:04.206Z,3.85
2023-01-25T06:21:30.767Z,3.92
2023-01-25T06:23:57.323Z,4.02
2023-01-25T06:26:23.840Z,4.02
2023-01-25T06:28:51.986Z,4.13
2023-01-25T06:31:19.223Z,4.04
2023-01-25T06:33:51.321Z,4.02
2023-01-25T06:36:19.735Z,4.05
2023-01-25T06:38:51.095Z,4.04
2023-01-25T06:41:19.191Z,4.02
2023-01-25T06:43:46.978Z,4.14
2023-01-25T06:46:13.753Z,4.15
2023-01-25T06:48:40.974Z,4.20
2023-01-25T06:51:09.890Z,4.17
2023-01-25T06:53:39.292Z,4.21
2023-01-25T06:56:13.345Z,4.20
2023-01-25T06:58:40.757Z,4.25
2023-01-25T07:01:14.283Z,4.21
2023-01-25T07:03:41.403Z,4.24
2023-01-25T07:06:10.265Z,4.19
2023-01-25T07:08:37.377Z,4.16
2023-01-25T07:11:06.924Z,4.15
2023-01-25T07:13:34.188Z,4.12
2023-01-25T07:16:04.167Z,4.08
2023-01-25T07:18:32.493Z,4.21
2023-01-25T07:21:08.190Z,4.11
2023-01-25T07:23:34.863Z,4.19
2023-01-25T07:26:01.754Z,4.13
2023-01-25T07:28:29.054Z,4.23
2023-01-25T07:30:55.572Z,4.33
2023-01-25T07:33:22.303Z,4.38
2023-01-25T07:35:48.827Z,4.34
2023-01-25T07:38:15.325Z,4.22
2023-01-25T07:40:41.817Z,4.33
2023-01-25T07:43:08.429Z,4.21
2023-01-25T07:45:34.921Z,4.35
2023-01-25T07:48:08.695Z,4.01
2023-01-25T07:50:35.211Z,3.96
2023-01-25T07:53:01.718Z,3.92
2023-01-25T07:55:28.238Z,4.32
2023-01-25T07:57:54.906Z,4.51
2023-01-25T08:00:23.269Z,4.56
2023-01-25T08:02:51.270Z,4.62
2023-01-25T08:05:17.882Z,4.60
2023-01-25T08:07:45.009Z,4.67
2023-01-25T08:10:11.701Z,4.58
2023-01-25T08:12:38.189Z,4.77
2023-01-25T08:15:05.077Z,4.71
2023-01-25T08:17:31.568Z,4.74
2023-01-25T08:19:59.674Z,4.80
2023-01-25T08:22:26.191Z,4.48
2023-01-25T08:24:52.694Z,4.53
2023-01-25T08:27:19.326Z,4.60
2023-01-25T08:29:46.791Z,4.58
2023-01-25T08:32:13.312Z,4.57
2023-01-25T08:34:39.836Z,4.63
2023-01-25T08:37:06.370Z,4.84
2023-01-25T08:39:32.859Z,5.03
2023-01-25T08:41:59.369Z,4.86
2023-01-25T08:44:25.880Z,5.26
2023-01-25T08:46:52.381Z,5.40
2023-01-25T08:49:18.974Z,5.46
2023-01-25T08:51:46.027Z,5.33
2023-01-25T08:54:12.833Z,5.09
2023-01-25T08:56:41.065Z,4.61
2023-01-25T08:59:10.574Z,4.86
2023-01-25T09:01:37.067Z,5.03
2023-01-25T09:04:06.036Z,4.95
2023-01-25T09:06:33.346Z,5.33
2023-01-25T09:08:59.872Z,5.38
2023-01-25T09:11:26.403Z,5.40
2023-01-25T09:13:52.881Z,5.46
2023-01-25T09:16:22.281Z,4.51
2023-01-25T09:18:50.723Z,4.47
2023-01-25T09:21:19.014Z,4.74
2023-01-25T09:24:04.481Z,4.97
2023-01-25T09:26:34.462Z,5.07
2023-01-25T09:29:01.032Z,5.37
2023-01-25T09:31:27.857Z,5.58
2023-01-25T09:33:54.559Z,5.75
2023-01-25T09:36:21.038Z,5.88
2023-01-25T09:38:47.569Z,5.94
2023-01-25T09:41:32.969Z,5.81
2023-01-25T09:44:15.792Z,5.40
2023-01-25T09:46:50.386Z,5.68
2023-01-25T09:49:35.462Z,5.98
2023-01-25T09:52:28.147Z,6.06
2023-01-25T09:54:54.772Z,6.25
2023-01-25T09:57:32.534Z,6.22
2023-01-25T10:00:08.465Z,6.33
2023-01-25T10:03:01.587Z,6.37
2023-01-25T10:05:42.517Z,6.44
2023-01-25T10:08:35.791Z,6.16
2023-01-25T10:11:16.871Z,6.46
2023-01-25T10:13:44.079Z,6.22
2023-01-25T10:16:35.362Z,5.95
2023-01-25T10:19:25.746Z,6.14
2023-01-25T10:22:04.268Z,6.47
2023-01-25T10:25:08.344Z,6.41
2023-01-25T10:27:54.780Z,6.42
2023-01-25T10:30:28.803Z,6.71
2023-01-25T10:33:00.182Z,6.79
2023-01-25T10:35:42.617Z,7.00
2023-01-25T10:38:30.451Z,6.93
2023-01-25T10:41:04.238Z,7.06
2023-01-25T10:43:30.782Z,7.13
2023-01-25T10:45:57.584Z,7.34
2023-01-25T10:48:30.291Z,7.30
2023-01-25T10:50:57.510Z,6.75
2023-01-25T10:53:28.146Z,6.54
2023-01-25T10:55:59.576Z,6.61
2023-01-25T10:58:39.129Z,6.69
2023-01-25T11:01:10.829Z,6.87
2023-01-25T11:03:41.616Z,6.93
2023-01-25T11:06:09.345Z,6.79
2023-01-25T11:08:41.885Z,6.52
2023-01-25T11:11:24.765Z,6.53
2023-01-25T11:13:53.354Z,6.00
2023-01-25T11:16:29.251Z,6.40
2023-01-25T11:18:57.364Z,6.27
2023-01-25T11:21:28.079Z,6.32
2023-01-25T11:23:59.140Z,6.14
2023-01-25T11:26:25.853Z,6.10
2023-01-25T11:29:19.160Z,5.87
2023-01-25T11:31:55.266Z,6.04
2023-01-25T11:34:26.464Z,5.35
2023-01-25T11:37:02.049Z,5.83
2023-01-25T11:39:59.629Z,5.79
2023-01-25T11:42:47.412Z,5.95
2023-01-25T11:45:40.777Z,5.77
2023-01-25T11:48:25.871Z,5.55
2023-01-25T11:51:26.060Z,5.74
2023-01-25T11:54:29.804Z,5.78
2023-01-25T11:57:36.627Z,5.63
2023-01-25T12:00:27.930Z,5.20
2023-01-25T12:03:16.857Z,5.33
2023-01-25T12:06:14.601Z,5.14
2023-01-25T12:09:03.198Z,4.95
2023-01-25T12:12:03.689Z,4.36
2023-01-25T12:15:00.079Z,4.26
2023-01-25T12:18:04.370Z,4.46
2023-01-25T12:20:53.896Z,4.88
2023-01-25T12:23:32.429Z,4.34
2023-01-25T12:26:19.960Z,4.38
2023-01-25T12:29:11.412Z,4.65
2023-01-25T12:31:46.511Z,4.38
2023-01-25T12:34:31.075Z,4.83
2023-01-25T12:37:15.385Z,5.07
2023-01-25T12:39:57.854Z,5.26
2023-01-25T12:42:33.495Z,4.93
2023-01-25T12:45:10.302Z,4.94
2023-01-25T12:48:10.181Z,5.51
2023-01-25T12:50:56.626Z,5.43
2023-01-25T12:53:38.635Z,4.92
2023-01-25T12:56:10.019Z,4.90
2023-01-25T12:59:03.297Z,5.43
2023-01-25T13:01:51.372Z,5.02
2023-01-25T13:04:56.207Z,4.83
2023-01-25T13:07:37.902Z,4.73
2023-01-25T13:10:27.703Z,5.01
2023-01-25T13:12:58.625Z,5.21
2023-01-25T13:15:35.343Z,5.68
2023-01-25T13:18:01.971Z,5.88
2023-01-25T13:20:40.637Z,4.77
2023-01-25T13:23:30.476Z,4.59
2023-01-25T13:26:15.592Z,4.96
2023-01-25T13:28:45.977Z,5.40
2023-01-25T13:31:51.048Z,5.26
2023-01-25T13:34:36.560Z,5.46
2023-01-25T13:37:20.840Z,5.51
2023-01-25T13:40:06.217Z,5.29
2023-01-25T13:42:35.649Z,5.88
2023-01-25T13:45:15.396Z,5.90
2023-01-25T13:47:44.219Z,5.74
2023-01-25T13:50:32.590Z,5.84
2023-01-25T13:53:14.359Z,5.42
2023-01-25T13:55:44.904Z,5.43
2023-01-25T13:58:23.765Z,5.03
2023-01-25T14:01:02.180Z,4.92
2023-01-25T14:03:35.648Z,4.83
2023-01-25T14:06:03.393Z,4.98
2023-01-25T14:08:31.824Z,5.11
2023-01-25T14:10:58.771Z,4.88
2023-01-25T14:13:25.508Z,5.28
2023-01-25T14:16:18.482Z,4.57
2023-01-25T14:18:45.063Z,4.96
2023-01-25T14:21:16.919Z,4.97
2023-01-25T14:23:44.655Z,5.32
2023-01-25T14:26:18.727Z,5.50
2023-01-25T14:28:59.167Z,5.85
2023-01-25T14:31:35.086Z,5.85
2023-01-25T14:34:02.788Z,6.00
2023-01-25T14:36:31.806Z,6.19
2023-01-25T14:38:58.570Z,6.08
2023-01-25T14:41:41.892Z,5.83
2023-01-25T14:44:15.517Z,5.91
2023-01-25T14:46:42.284Z,6.07
2023-01-25T14:49:11.870Z,5.90
2023-01-25T14:51:48.907Z,5.60
2023-01-25T14:54:19.703Z,4.53
2023-01-25T14:56:59.393Z,4.47
2023-01-25T14:59:44.473Z,4.43
2023-01-25T15:02:23.737Z,4.09
2023-01-25T15:05:11.065Z,4.56
2023-01-25T15:07:47.540Z,4.28
2023-01-25T15:10:16.266Z,4.51
2023-01-25T15:13:15.651Z,4.15
2023-01-25T15:15:54.756Z,3.89
2023-01-25T15:18:39.876Z,3.89
2023-01-25T15:21:11.510Z,3.94
2023-01-25T15:23:40.804Z,3.46
2023-01-25T15:26:21.011Z,3.65
2023-01-25T15:28:49.422Z,3.12
2023-01-25T15:31:23.469Z,3.40
2023-01-25T15:33:50.327Z,3.50
2023-01-25T15:36:17.539Z,3.97
2023-01-25T15:38:44.960Z,3.95
2023-01-25T15:41:11.983Z,4.42
2023-01-25T15:43:38.558Z,4.62
2023-01-25T15:46:11.270Z,4.57
2023-01-25T15:48:42.488Z,4.56
2023-01-25T15:51:09.050Z,5.13
2023-01-25T15:53:35.545Z,5.03
2023-01-25T15:56:06.465Z,5.40
2023-01-25T15:58:36.869Z,5.52
2023-01-25T16:01:03.896Z,5.53
2023-01-25T16:03:30.702Z,5.29
2023-01-25T16:06:01.610Z,5.47
2023-01-25T16:08:29.295Z,5.59
2023-01-25T16:10:56.183Z,5.56
2023-01-25T16:13:23.059Z,5.58
2023-01-25T16:15:53.327Z,5.78
2023-01-25T16:18:20.213Z,5.69
2023-01-25T16:20:46.782Z,5.85
2023-01-25T16:23:13.292Z,5.91
2023-01-25T16:25:42.410Z,5.38
2023-01-25T16:28:16.151Z,5.77
2023-01-25T16:30:43.287Z,5.19
2023-01-25T16:33:09.820Z,5.39
2023-01-25T16:35:36.525Z,5.40
2023-01-25T16:38:03.161Z,5.54
2023-01-25T16:40:34.080Z,5.56
2023-01-25T16:43:00.583Z,5.73
2023-01-25T16:45:27.132Z,5.86
2023-01-25T16:47:53.691Z,5.75
2023-01-25T16:50:23.001Z,5.89
2023-01-25T16:52:50.146Z,6.00
2023-01-25T16:55:18.828Z,6.09
2023-01-25T16:57:49.957Z,5.95
2023-01-25T17:00:17.027Z,6.08
2023-01-25T17:02:58.161Z,5.95
2023-01-25T17:05:27.479Z,6.15
2023-01-25T17:07:54.481Z,6.12
2023-01-25T17:10:21.000Z,6.20
2023-01-25T17:12:47.609Z,6.25
2023-01-25T17:15:14.247Z,6.33
2023-01-25T17:17:40.759Z,6.19
2023-01-25T17:20:08.053Z,6.08
2023-01-25T17:22:34.699Z,6.18
2023-01-25T17:25:01.209Z,6.15
2023-01-25T17:27:27.749Z,5.88
2023-01-25T17:29:54.259Z,6.04
2023-01-25T17:32:20.781Z,6.15
2023-01-25T17:34:47.354Z,6.06
2023-01-25T17:37:13.868Z,6.16
2023-01-25T17:39:40.436Z,6.16
2023-01-25T17:42:06.921Z,6.17
2023-01-25T17:44:33.414Z,6.15
2023-01-25T17:47:00.048Z,5.93
2023-01-25T17:49:26.547Z,5.86
2023-01-25T17:51:53.053Z,5.99
2023-01-25T17:54:19.550Z,5.98
2023-01-25T17:56:46.208Z,6.06
2023-01-25T17:59:12.713Z,5.92
2023-01-25T18:01:39.778Z,5.93
2023-01-25T18:04:07.966Z,5.89
2023-01-25T18:06:34.625Z,6.02
2023-01-25T18:09:03.468Z,5.90
2023-01-25T18:11:33.647Z,5.88
2023-01-25T18:14:05.765Z,5.89
2023-01-25T18:16:32.316Z,5.64
2023-01-25T18:19:00.842Z,5.61
2023-01-25T18:21:31.087Z,5.15
2023-01-25T18:24:20.621Z,4.69
2023-01-25T18:26:47.157Z,4.24
2023-01-25T18:29:13.573Z,3.99
2023-01-25T18:31:40.182Z,3.79
2023-01-25T18:34:06.710Z,3.87
2023-01-25T18:36:36.448Z,4.42
2023-01-25T18:39:03.045Z,4.49
2023-01-25T18:41:29.519Z,4.60
2023-01-25T18:43:56.050Z,4.62
2023-01-25T18:46:22.561Z,4.50
2023-01-25T18:48:49.091Z,4.23
2023-01-25T18:51:16.997Z,4.02
2023-01-25T18:53:44.548Z,4.27
2023-01-25T18:56:17.348Z,4.50
2023-01-25T18:58:44.560Z,4.24
2023-01-25T19:01:14.373Z,4.66
2023-01-25T19:03:42.376Z,4.99
2023-01-25T19:06:10.183Z,4.92
2023-01-25T19:08:36.911Z,5.02
2023-01-25T19:11:06.128Z,4.80
2023-01-25T19:13:35.207Z,4.66
2023-01-25T19:16:09.372Z,4.67
2023-01-25T19:18:41.067Z,4.34
2023-01-25T19:21:09.329Z,4.19
2023-01-25T19:26:02.955Z,4.22
2023-01-25T19:27:02.869Z,4.32
2023-01-25T19:29:41.387Z,4.41
2023-01-25T19:32:10.687Z,4.22
2023-01-25T19:34:40.972Z,4.23
2023-01-25T19:37:14.776Z,4.37
2023-01-25T19:39:41.294Z,4.26
2023-01-25T19:42:07.946Z,4.23
2023-01-25T19:44:37.116Z,4.11
2023-01-25T19:47:11.142Z,4.04
2023-01-25T19:49:37.815Z,4.12
2023-01-25T19:52:04.589Z,4.23
2023-01-25T19:54:31.158Z,4.45
2023-01-25T19:56:57.622Z,4.60
2023-01-25T19:59:24.287Z,4.67
2023-01-25T20:01:51.481Z,4.87
2023-01-25T20:04:20.848Z,4.95
2023-01-25T20:06:48.528Z,5.02
2023-01-25T20:09:17.618Z,4.86
2023-01-25T20:11:44.779Z,4.79
2023-01-25T20:14:12.939Z,4.63
2023-01-25T20:16:39.745Z,4.21
2023-01-25T20:19:06.534Z,4.15
2023-01-25T20:21:33.232Z,3.77
2023-01-25T20:24:04.831Z,3.92
2023-01-25T20:26:34.643Z,3.99
2023-01-25T20:29:01.228Z,3.70
2023-01-25T20:31:29.117Z,3.70
2023-01-25T20:34:04.654Z,3.72
2023-01-25T20:36:33.327Z,3.95
2023-01-25T20:39:00.445Z,3.94
2023-01-25T20:41:27.528Z,3.91
2023-01-25T20:43:58.985Z,3.85
2023-01-25T20:46:29.795Z,3.85
2023-01-25T20:48:56.331Z,3.75
2023-01-25T20:51:22.964Z,3.47
2023-01-25T20:53:52.825Z,3.69
2023-01-25T20:56:19.438Z,3.22
2023-01-25T20:58:46.581Z,3.33
2023-01-25T21:01:15.826Z,3.20
2023-01-25T21:03:42.794Z,3.47
2023-01-25T21:06:09.973Z,3.35
2023-01-25T21:08:36.548Z,3.40
2023-01-25T21:11:03.151Z,3.04
2023-01-25T21:13:32.043Z,3.36
2023-01-25T21:16:05.924Z,3.53
2023-01-25T21:18:42.006Z,3.51
2023-01-25T21:21:17.674Z,3.96
2023-01-25T21:23:48.762Z,3.72
2023-01-25T21:26:21.374Z,4.05
2023-01-25T21:28:49.144Z,3.72
2023-01-25T21:31:19.869Z,3.77
2023-01-25T21:33:47.792Z,3.95
2023-01-25T21:36:16.055Z,3.88
2023-01-25T21:38:47.888Z,3.88
2023-01-25T21:41:20.242Z,3.70
2023-01-25T21:43:48.151Z,3.81
2023-01-25T21:46:14.712Z,3.59
2023-01-25T21:48:41.199Z,3.65
2023-01-25T21:51:12.355Z,3.61
2023-01-25T21:53:38.869Z,3.06
2023-01-25T21:56:05.554Z,3.63
2023-01-25T21:58:32.070Z,3.89
2023-01-25T22:01:01.061Z,4.00
2023-01-25T22:03:27.540Z,3.77
2023-01-25T22:05:54.541Z,3.57
2023-01-25T22:08:21.040Z,3.73
2023-01-25T22:10:49.868Z,3.82
2023-01-25T22:13:16.460Z,3.57
2023-01-25T22:15:43.004Z,3.85
2023-01-25T22:18:09.533Z,3.85
2023-01-25T22:20:36.149Z,3.86
2023-01-25T22:23:02.662Z,3.85
2023-01-25T22:25:29.171Z,3.78
2023-01-25T22:27:59.917Z,3.92
2023-01-25T22:30:26.443Z,3.81
2023-01-25T22:32:52.972Z,3.85
2023-01-25T22:35:19.509Z,4.15
2023-01-25T22:37:45.973Z,4.09
2023-01-25T22:40:12.974Z,3.92
2023-01-25T22:42:39.703Z,4.20
2023-01-25T22:45:06.942Z,3.84
2023-01-25T22:47:33.453Z,3.94
2023-01-25T22:50:00.120Z,3.84
2023-01-25T22:52:26.858Z,3.64
2023-01-25T22:54:53.353Z,3.82
2023-01-25T22:57:19.871Z,3.92
2023-01-25T22:59:46.497Z,4.22
2023-01-25T23:02:13.045Z,4.19
2023-01-25T23:04:42.193Z,4.20
2023-01-25T23:07:08.729Z,4.02
2023-01-25T23:09:35.208Z,3.95
2023-01-25T23:12:01.920Z,4.20
2023-01-25T23:14:28.420Z,4.27
2023-01-25T23:16:55.020Z,4.27
2023-01-25T23:19:21.507Z,4.60
2023-01-25T23:21:48.127Z,4.79
2023-01-25T23:24:14.742Z,4.94
2023-01-25T23:26:41.284Z,4.96
2023-01-25T23:29:11.986Z,4.77
2023-01-25T23:31:38.611Z,4.91
2023-01-25T23:34:06.468Z,4.92
2023-01-25T23:36:35.719Z,4.99
2023-01-25T23:39:03.150Z,4.93
2023-01-25T23:41:30.723Z,4.99
2023-01-25T23:43:57.927Z,5.02
2023-01-25T23:46:25.573Z,4.99
2023-01-25T23:48:52.104Z,5.24
2023-01-25T23:51:19.154Z,5.32
2023-01-25T23:53:46.168Z,5.27
2023-01-25T23:56:16.932Z,5.16
2023-01-25T23:58:44.965Z,5.27
